• Join FlightAware (Why Join?)
  • Login
  • US Flag 
10:16PM EDT


 

Airport Tracker/Info


-or-


 

Live Flight TrackerFlight Track Log ✈ RAX500 ✈ 03-May-2013 ✈ KSYR - KPTK

Flight Track Log - Related Links

Times and Time Zones

All times are in EDT time to prevent confusion due to time zone crossing. See the RAX500 flight status page for this flight to view local times or setup timezone preferences in your user account.

Time Position Orientation Groundspeed Altitude Reporting Facility
EDT Latitude Longitude Course Direction KTS MPH feet Rate Location/Type
06:59PM 43.1150 -76.0300 286° West 197 227 2,800  Level Boston Center
07:00PM 43.1444 -76.0858 306° West 264 304 6,100 2,460 Climbing Boston Center
07:02PM 43.1831 -76.2947 284° West 286 329 10,200 2,520 Climbing Cleveland Center
07:03PM 43.2000 -76.4161 281° West 305 351 13,800 3,300 Climbing Cleveland Center
07:04PM 43.2153 -76.5492 279° West 340 391 16,800 2,640 Climbing Cleveland Center
07:05PM 43.2588 -76.8130 286° West  Level FlightAware Approximate
07:05PM 43.2325 -76.6847 280° West 356 410 19,100  Level Cleveland Center
07:06PM 43.2203 -76.8225 263° West 367 422 22,000 2,460 Climbing Cleveland Center
07:07PM 43.2019 -76.9658 260° West 372 428 24,100 2,100 Climbing Cleveland Center
07:08PM 43.1878 -77.1150 263° West 383 441 26,300 2,160 Climbing Cleveland Center
07:09PM 43.1858 -77.2631 269° West 393 452 28,500 2,100 Climbing Cleveland Center
07:10PM 43.1839 -77.4169 269° West 398 458 30,600 1,740 Climbing Cleveland Center
07:11PM 43.1819 -77.5736 269° West 404 465 32,000 660 Climbing Cleveland Center
07:12PM 43.1858 -77.7358 272° West 414 476 32,000  Level Cleveland Center
07:13PM 43.1900 -77.9067 272° West 435 501 32,000  Level Cleveland Center
07:14PM 43.1958 -78.0800 273° West 447 514 32,000  Level Cleveland Center
07:15PM 43.2036 -78.2478 274° West 452 520 32,000  Level Cleveland Center
07:16PM 43.1922 -78.4106 265° West 452 520 32,000  Level Cleveland Center
07:17PM 43.1722 -78.5764 261° West 447 514 32,000  Level Cleveland Center
07:18PM 43.1603 -78.7419 264° West 442 509 32,000 -60 Level Cleveland Center
07:19PM 43.1672 -78.9067 273° West 442 509 31,900  Descending Cleveland Center
07:20PM 43.1500 -79.0000 256° West 440 506 32,000  Climbing Toronto Center
07:21PM 43.1167 -79.1500 253° West 440 506 31,900 -660 Descending Toronto Center
07:22PM 43.1333 -79.3167 278° West 450 518 30,700 -1,140 Descending Toronto Center
07:23PM 43.1333 -79.5000 270° West 450 518 29,700 -900 Descending Toronto Center
07:24PM 43.1167 -79.6500 261° West 440 506 29,000 -840 Descending Toronto Center
07:25PM 43.1167 -79.8333 270° West 440 506 28,100 -900 Descending Toronto Center
07:26PM 43.1000 -80.0000 262° West 440 506 27,300 -900 Descending Toronto Center
07:27PM 43.0833 -80.1500 261° West 440 506 26,400 -900 Descending Toronto Center
07:28PM 43.0833 -80.3167 270° West 440 506 25,500 -840 Descending Toronto Center
07:29PM 43.0667 -80.4833 262° West 440 506 24,800 -600 Descending Toronto Center
07:30PM 43.0500 -80.6667 263° West 430 495 24,300 -360 Descending Toronto Center
07:31PM 43.0167 -80.8000 251° West 430 495 24,100 -180 Descending Toronto Center
07:32PM 42.9833 -80.9500 253° West 430 495 24,000 -60 Descending Toronto Center
07:33PM 42.9500 -81.1167 255° West 420 483 24,000 -720 Level Toronto Center
07:34PM 42.9333 -81.2667 261° West 410 472 22,600 -2,220 Descending Toronto Center
07:35PM 42.9167 -81.4167 261° West 400 460 19,600 -3,000 Descending Toronto Center
07:36PM 42.9000 -81.5667 261° West 390 449 16,700 -2,880 Descending Toronto Center
07:37PM 42.8833 -81.6833 259° West 360 414 13,900 -2,700 Descending Toronto Center
07:38PM 42.8667 -81.8167 260° West 350 403 11,300 -1,860 Descending Toronto Center
07:39PM 42.8589 -81.9058 263° West 353 406 11,000 -240 Descending Cleveland Center
07:40PM 42.8411 -82.0103 257° West 325 374 11,000 -420 Level Cleveland Center
07:41PM 42.8189 -82.1117 253° West 292 336 10,200 -540 Descending Cleveland Center
07:42PM 42.7906 -82.2100 249° West 282 325 10,000 -480 Descending Cleveland Center
07:43PM 42.7786 -82.3172 261° West 282 325 9,300 -840 Descending Cleveland Center
07:44PM 42.7789 -82.4219 270° West 282 325 8,400 -1,080 Descending Cleveland Center
07:45PM 42.7722 -82.5772 267° West 287 330 6,700 -1,200 Descending Cleveland Center
07:46PM 42.7669 -82.6364 263° West 283 326 6,000 -600 Descending Cleveland Center
07:46PM 42.7592 -82.7294 264° West 281 323 5,900 -120 Descending Cleveland Center
07:47PM 42.7528 -82.8397 266° West 268 308 5,800 -480 Descending Cleveland Center
07:48PM 42.7425 -82.9439 262° West 290 334 4,900 -780 Descending Cleveland Center
07:50PM 42.7458 -83.0825 272° West 294 338 4,100 -480 Descending Cleveland Center
07:50PM 42.7419 -83.1531 266° West 285 328 4,000 -120 Descending Cleveland Center
07:52PM 42.7389 -83.2942 268° West 269 310 3,900 -360 Descending Cleveland Center
07:53PM 42.7178 -83.3894 253° West 252 290 3,200 -720 Descending Cleveland Center
07:54PM 42.7039 -83.4511 253° West 197 227 2,600 -960 Descending Cleveland Center
07:55PM 42.6661 -83.4606 190° South 138 159 1,500 -1,140 Descending Cleveland Center
07:57PM 42.6500 -83.4167 154° Southeast  Level FlightAware Approximate
08:04PM 42.6656 -83.4205 154° Southeast  Level Estimated